Toledo, Iowa
Current Conditions -  °F | °C
As of 8:02 AM on Sunday 25 Jan 2015 (Local Time) from KMIW Reporting Station
Light Snow Light Snow  
Wind Chill: 22°   Ceiling: 600
Heat Index: 33°   Visibility: 0.5mi
Dew Point: 31°   Wind: 18mph
Humidity: 92%   Direction: 40°NE
Pressure: 29.73"   Gusts: NA
Location:  42°N, 92.58°W
Report Text: KMIW 251402Z AUTO 04016KT 1/2SM -SN FG OVC006 01/M01 A2973 RMK AO2 P0000 T00061006
Loading
Personal Weather Stations






























Interactive Weather Map New forecast layout! Learn more

10-Day Weather Forecast

Advertisements
Track Severe Weather on mobile